sensor_id;sensor_type;location;lat;lon;timestamp;P1;P2;P0
74880;PMS5003;63427;49.654;6.596;2022-10-30T00:02:16;19;19;
74880;PMS5003;63427;49.654;6.596;2022-10-30T00:04:41;21;21;
74880;PMS5003;63427;49.654;6.596;2022-10-30T00:07:07;23;23;
74880;PMS5003;63427;49.654;6.596;2022-10-30T00:09:32;17;17;
74880;PMS5003;63427;49.654;6.596;2022-10-30T00:11:57;23;22;
74880;PMS5003;63427;49.654;6.596;2022-10-30T00:14:22;20;20;
74880;PMS5003;63427;49.654;6.596;2022-10-30T00:16:48;20;20;
74880;PMS5003;63427;49.654;6.596;2022-10-30T00:19:13;27;25;
74880;PMS5003;63427;49.654;6.596;2022-10-30T00:21:38;22;20;
74880;PMS5003;63427;49.654;6.596;2022-10-30T00:24:03;16;16;
74880;PMS5003;63427;49.654;6.596;2022-10-30T00:26:29;18;17;
74880;PMS5003;63427;49.654;6.596;2022-10-30T00:28:54;20;20;
74880;PMS5003;63427;49.654;6.596;2022-10-30T00:31:20;18;18;
74880;PMS5003;63427;49.654;6.596;2022-10-30T00:33:47;17;16;
74880;PMS5003;63427;49.654;6.596;2022-10-30T00:36:10;19;19;
74880;PMS5003;63427;49.654;6.596;2022-10-30T00:38:36;18;18;
74880;PMS5003;63427;49.654;6.596;2022-10-30T00:41:02;18;18;
74880;PMS5003;63427;49.654;6.596;2022-10-30T00:43:31;17;16;
74880;PMS5003;63427;49.654;6.596;2022-10-30T00:45:52;20;18;
74880;PMS5003;63427;49.654;6.596;2022-10-30T00:48:18;19;18;
74880;PMS5003;63427;49.654;6.596;2022-10-30T00:50:43;20;19;
74880;PMS5003;63427;49.654;6.596;2022-10-30T00:53:10;20;19;
74880;PMS5003;63427;49.654;6.596;2022-10-30T00:55:35;17;16;
74880;PMS5003;63427;49.654;6.596;2022-10-30T00:58:00;18;18;
74880;PMS5003;63427;49.654;6.596;2022-10-30T01:00:26;20;20;
74880;PMS5003;63427;49.654;6.596;2022-10-30T01:02:51;20;20;
74880;PMS5003;63427;49.654;6.596;2022-10-30T01:05:17;19;19;
74880;PMS5003;63427;49.654;6.596;2022-10-30T01:07:42;21;21;
74880;PMS5003;63427;49.654;6.596;2022-10-30T01:10:08;16;16;
74880;PMS5003;63427;49.654;6.596;2022-10-30T01:12:34;21;21;
74880;PMS5003;63427;49.654;6.596;2022-10-30T01:14:59;17;17;
74880;PMS5003;63427;49.654;6.596;2022-10-30T01:17:30;18;18;
74880;PMS5003;63427;49.654;6.596;2022-10-30T01:19:52;18;17;
74880;PMS5003;63427;49.654;6.596;2022-10-30T01:22:20;19;19;
74880;PMS5003;63427;49.654;6.596;2022-10-30T01:24:45;18;16;
74880;PMS5003;63427;49.654;6.596;2022-10-30T01:27:10;20;20;
74880;PMS5003;63427;49.654;6.596;2022-10-30T01:29:34;18;18;
74880;PMS5003;63427;49.654;6.596;2022-10-30T01:31:59;20;19;
74880;PMS5003;63427;49.654;6.596;2022-10-30T01:34:25;17;17;
74880;PMS5003;63427;49.654;6.596;2022-10-30T01:36:49;20;20;
74880;PMS5003;63427;49.654;6.596;2022-10-30T01:39:13;17;17;
74880;PMS5003;63427;49.654;6.596;2022-10-30T01:41:38;18;17;
74880;PMS5003;63427;49.654;6.596;2022-10-30T01:44:04;17;17;
74880;PMS5003;63427;49.654;6.596;2022-10-30T01:46:31;21;20;
74880;PMS5003;63427;49.654;6.596;2022-10-30T01:48:59;21;21;
74880;PMS5003;63427;49.654;6.596;2022-10-30T01:51:20;19;18;
74880;PMS5003;63427;49.654;6.596;2022-10-30T01:53:47;17;16;
74880;PMS5003;63427;49.654;6.596;2022-10-30T01:56:14;16;15;
74880;PMS5003;63427;49.654;6.596;2022-10-30T01:58:38;18;18;
74880;PMS5003;63427;49.654;6.596;2022-10-30T02:01:01;17;17;
74880;PMS5003;63427;49.654;6.596;2022-10-30T02:03:27;21;20;
74880;PMS5003;63427;49.654;6.596;2022-10-30T02:05:52;22;21;
74880;PMS5003;63427;49.654;6.596;2022-10-30T02:08:17;17;17;
74880;PMS5003;63427;49.654;6.596;2022-10-30T02:10:43;17;17;
74880;PMS5003;63427;49.654;6.596;2022-10-30T02:13:09;15;15;
74880;PMS5003;63427;49.654;6.596;2022-10-30T02:15:34;17;17;
74880;PMS5003;63427;49.654;6.596;2022-10-30T02:18:00;21;20;
74880;PMS5003;63427;49.654;6.596;2022-10-30T02:20:26;19;18;
74880;PMS5003;63427;49.654;6.596;2022-10-30T02:22:51;17;16;
74880;PMS5003;63427;49.654;6.596;2022-10-30T02:25:17;18;18;
74880;PMS5003;63427;49.654;6.596;2022-10-30T02:27:42;23;23;
74880;PMS5003;63427;49.654;6.596;2022-10-30T02:30:08;20;19;
74880;PMS5003;63427;49.654;6.596;2022-10-30T02:32:33;26;24;
74880;PMS5003;63427;49.654;6.596;2022-10-30T02:34:58;19;17;
74880;PMS5003;63427;49.654;6.596;2022-10-30T02:37:24;18;17;
74880;PMS5003;63427;49.654;6.596;2022-10-30T02:39:49;21;20;
74880;PMS5003;63427;49.654;6.596;2022-10-30T02:42:15;16;15;
74880;PMS5003;63427;49.654;6.596;2022-10-30T02:44:41;21;21;
74880;PMS5003;63427;49.654;6.596;2022-10-30T02:47:06;19;18;
74880;PMS5003;63427;49.654;6.596;2022-10-30T02:49:31;19;18;
74880;PMS5003;63427;49.654;6.596;2022-10-30T02:51:57;20;20;
74880;PMS5003;63427;49.654;6.596;2022-10-30T02:54:22;21;20;
74880;PMS5003;63427;49.654;6.596;2022-10-30T02:56:47;18;17;
74880;PMS5003;63427;49.654;6.596;2022-10-30T02:59:13;17;17;
74880;PMS5003;63427;49.654;6.596;2022-10-30T03:01:38;17;17;
74880;PMS5003;63427;49.654;6.596;2022-10-30T03:04:04;18;17;
74880;PMS5003;63427;49.654;6.596;2022-10-30T03:06:29;16;16;
74880;PMS5003;63427;49.654;6.596;2022-10-30T03:08:54;17;17;
74880;PMS5003;63427;49.654;6.596;2022-10-30T03:11:20;21;21;
74880;PMS5003;63427;49.654;6.596;2022-10-30T03:13:46;16;16;
74880;PMS5003;63427;49.654;6.596;2022-10-30T03:16:12;18;17;
74880;PMS5003;63427;49.654;6.596;2022-10-30T03:18:37;18;18;
74880;PMS5003;63427;49.654;6.596;2022-10-30T03:21:04;17;17;
74880;PMS5003;63427;49.654;6.596;2022-10-30T03:23:28;21;19;
74880;PMS5003;63427;49.654;6.596;2022-10-30T03:25:54;20;19;
74880;PMS5003;63427;49.654;6.596;2022-10-30T03:28:19;20;20;
74880;PMS5003;63427;49.654;6.596;2022-10-30T03:30:44;19;19;
74880;PMS5003;63427;49.654;6.596;2022-10-30T03:33:10;18;17;
74880;PMS5003;63427;49.654;6.596;2022-10-30T03:35:35;17;17;
74880;PMS5003;63427;49.654;6.596;2022-10-30T03:38:01;21;21;
74880;PMS5003;63427;49.654;6.596;2022-10-30T03:40:26;21;20;
74880;PMS5003;63427;49.654;6.596;2022-10-30T03:42:52;22;20;
74880;PMS5003;63427;49.654;6.596;2022-10-30T03:45:17;21;21;
74880;PMS5003;63427;49.654;6.596;2022-10-30T03:47:43;20;19;
74880;PMS5003;63427;49.654;6.596;2022-10-30T03:50:08;20;20;
74880;PMS5003;63427;49.654;6.596;2022-10-30T03:52:34;19;18;
74880;PMS5003;63427;49.654;6.596;2022-10-30T03:55:00;15;15;
74880;PMS5003;63427;49.654;6.596;2022-10-30T03:57:25;18;17;
74880;PMS5003;63427;49.654;6.596;2022-10-30T03:59:51;24;23;
74880;PMS5003;63427;49.654;6.596;2022-10-30T04:02:16;18;18;
74880;PMS5003;63427;49.654;6.596;2022-10-30T04:04:41;21;21;
74880;PMS5003;63427;49.654;6.596;2022-10-30T04:07:07;21;20;
74880;PMS5003;63427;49.654;6.596;2022-10-30T04:09:32;19;18;
74880;PMS5003;63427;49.654;6.596;2022-10-30T04:11:58;20;20;
74880;PMS5003;63427;49.654;6.596;2022-10-30T04:14:23;18;17;
74880;PMS5003;63427;49.654;6.596;2022-10-30T04:16:49;20;20;
74880;PMS5003;63427;49.654;6.596;2022-10-30T04:19:14;20;19;
74880;PMS5003;63427;49.654;6.596;2022-10-30T04:21:40;18;18;
74880;PMS5003;63427;49.654;6.596;2022-10-30T04:24:05;20;20;
74880;PMS5003;63427;49.654;6.596;2022-10-30T04:26:30;15;15;
74880;PMS5003;63427;49.654;6.596;2022-10-30T04:28:55;21;20;
74880;PMS5003;63427;49.654;6.596;2022-10-30T04:31:21;20;18;
74880;PMS5003;63427;49.654;6.596;2022-10-30T04:33:46;17;17;
74880;PMS5003;63427;49.654;6.596;2022-10-30T04:36:12;21;21;
74880;PMS5003;63427;49.654;6.596;2022-10-30T04:38:37;22;22;
74880;PMS5003;63427;49.654;6.596;2022-10-30T04:41:03;21;20;
74880;PMS5003;63427;49.654;6.596;2022-10-30T04:43:28;19;19;
74880;PMS5003;63427;49.654;6.596;2022-10-30T04:45:54;18;18;
74880;PMS5003;63427;49.654;6.596;2022-10-30T04:48:19;17;17;
74880;PMS5003;63427;49.654;6.596;2022-10-30T04:50:45;16;15;
74880;PMS5003;63427;49.654;6.596;2022-10-30T04:53:11;18;18;
74880;PMS5003;63427;49.654;6.596;2022-10-30T04:55:36;17;16;
74880;PMS5003;63427;49.654;6.596;2022-10-30T04:58:01;18;18;
74880;PMS5003;63427;49.654;6.596;2022-10-30T05:00:36;18;16;
74880;PMS5003;63427;49.654;6.596;2022-10-30T05:02:51;16;16;
74880;PMS5003;63427;49.654;6.596;2022-10-30T05:05:16;21;20;
74880;PMS5003;63427;49.654;6.596;2022-10-30T05:07:42;18;17;
74880;PMS5003;63427;49.654;6.596;2022-10-30T05:10:09;17;16;
74880;PMS5003;63427;49.654;6.596;2022-10-30T05:12:33;20;20;
74880;PMS5003;63427;49.654;6.596;2022-10-30T05:14:58;20;19;
74880;PMS5003;63427;49.654;6.596;2022-10-30T05:17:24;18;18;
74880;PMS5003;63427;49.654;6.596;2022-10-30T05:19:49;20;19;
74880;PMS5003;63427;49.654;6.596;2022-10-30T05:22:15;17;16;
74880;PMS5003;63427;49.654;6.596;2022-10-30T05:24:41;19;18;
74880;PMS5003;63427;49.654;6.596;2022-10-30T05:27:06;15;15;
74880;PMS5003;63427;49.654;6.596;2022-10-30T05:29:31;17;16;
74880;PMS5003;63427;49.654;6.596;2022-10-30T05:31:56;17;16;
74880;PMS5003;63427;49.654;6.596;2022-10-30T05:34:22;18;17;
74880;PMS5003;63427;49.654;6.596;2022-10-30T05:36:47;18;17;
74880;PMS5003;63427;49.654;6.596;2022-10-30T05:39:13;17;17;
74880;PMS5003;63427;49.654;6.596;2022-10-30T05:41:38;20;20;
74880;PMS5003;63427;49.654;6.596;2022-10-30T05:44:04;17;16;
74880;PMS5003;63427;49.654;6.596;2022-10-30T05:46:29;19;19;
74880;PMS5003;63427;49.654;6.596;2022-10-30T05:48:55;18;18;
74880;PMS5003;63427;49.654;6.596;2022-10-30T05:51:20;17;17;
74880;PMS5003;63427;49.654;6.596;2022-10-30T05:53:46;18;17;
74880;PMS5003;63427;49.654;6.596;2022-10-30T05:56:10;19;19;
74880;PMS5003;63427;49.654;6.596;2022-10-30T05:58:36;16;16;
74880;PMS5003;63427;49.654;6.596;2022-10-30T06:01:03;19;18;
74880;PMS5003;63427;49.654;6.596;2022-10-30T06:03:27;17;16;
74880;PMS5003;63427;49.654;6.596;2022-10-30T06:05:52;20;19;
74880;PMS5003;63427;49.654;6.596;2022-10-30T06:08:17;31;30;
74880;PMS5003;63427;49.654;6.596;2022-10-30T06:10:43;31;29;
74880;PMS5003;63427;49.654;6.596;2022-10-30T06:13:08;24;24;
74880;PMS5003;63427;49.654;6.596;2022-10-30T06:15:34;26;26;
74880;PMS5003;63427;49.654;6.596;2022-10-30T06:17:59;23;22;
74880;PMS5003;63427;49.654;6.596;2022-10-30T06:20:26;34;33;
74880;PMS5003;63427;49.654;6.596;2022-10-30T06:22:53;46;44;
74880;PMS5003;63427;49.654;6.596;2022-10-30T06:25:15;30;30;
74880;PMS5003;63427;49.654;6.596;2022-10-30T06:27:41;24;24;
74880;PMS5003;63427;49.654;6.596;2022-10-30T06:30:07;24;24;
74880;PMS5003;63427;49.654;6.596;2022-10-30T06:32:32;20;20;
74880;PMS5003;63427;49.654;6.596;2022-10-30T06:34:58;16;16;
74880;PMS5003;63427;49.654;6.596;2022-10-30T06:37:23;12;12;
74880;PMS5003;63427;49.654;6.596;2022-10-30T06:39:49;16;16;
74880;PMS5003;63427;49.654;6.596;2022-10-30T06:42:14;15;15;
74880;PMS5003;63427;49.654;6.596;2022-10-30T06:44:40;19;18;
74880;PMS5003;63427;49.654;6.596;2022-10-30T06:47:05;16;16;
74880;PMS5003;63427;49.654;6.596;2022-10-30T06:49:31;16;16;
74880;PMS5003;63427;49.654;6.596;2022-10-30T06:51:56;18;18;
74880;PMS5003;63427;49.654;6.596;2022-10-30T06:54:22;18;16;
74880;PMS5003;63427;49.654;6.596;2022-10-30T06:56:48;18;18;
74880;PMS5003;63427;49.654;6.596;2022-10-30T06:59:13;17;16;
74880;PMS5003;63427;49.654;6.596;2022-10-30T07:01:38;16;16;
74880;PMS5003;63427;49.654;6.596;2022-10-30T07:04:03;16;15;
74880;PMS5003;63427;49.654;6.596;2022-10-30T07:06:29;16;16;
74880;PMS5003;63427;49.654;6.596;2022-10-30T07:08:54;17;16;
74880;PMS5003;63427;49.654;6.596;2022-10-30T07:11:19;20;20;
74880;PMS5003;63427;49.654;6.596;2022-10-30T07:13:45;22;21;
74880;PMS5003;63427;49.654;6.596;2022-10-30T07:16:10;21;21;
74880;PMS5003;63427;49.654;6.596;2022-10-30T07:18:36;20;19;
74880;PMS5003;63427;49.654;6.596;2022-10-30T07:21:02;19;19;
74880;PMS5003;63427;49.654;6.596;2022-10-30T07:23:27;17;17;
74880;PMS5003;63427;49.654;6.596;2022-10-30T07:25:53;15;14;
74880;PMS5003;63427;49.654;6.596;2022-10-30T07:28:18;17;17;
74880;PMS5003;63427;49.654;6.596;2022-10-30T07:30:43;34;34;
74880;PMS5003;63427;49.654;6.596;2022-10-30T07:33:09;21;21;
74880;PMS5003;63427;49.654;6.596;2022-10-30T07:35:35;13;13;
74880;PMS5003;63427;49.654;6.596;2022-10-30T07:38:00;17;17;
74880;PMS5003;63427;49.654;6.596;2022-10-30T07:40:25;15;14;
74880;PMS5003;63427;49.654;6.596;2022-10-30T07:42:54;16;15;
74880;PMS5003;63427;49.654;6.596;2022-10-30T07:45:16;14;14;
74880;PMS5003;63427;49.654;6.596;2022-10-30T07:47:42;17;15;
74880;PMS5003;63427;49.654;6.596;2022-10-30T07:50:07;17;17;
74880;PMS5003;63427;49.654;6.596;2022-10-30T07:52:32;15;15;
74880;PMS5003;63427;49.654;6.596;2022-10-30T07:54:58;18;18;
74880;PMS5003;63427;49.654;6.596;2022-10-30T07:57:23;20;19;
74880;PMS5003;63427;49.654;6.596;2022-10-30T07:59:48;18;17;
74880;PMS5003;63427;49.654;6.596;2022-10-30T08:02:14;17;17;
74880;PMS5003;63427;49.654;6.596;2022-10-30T08:04:39;18;18;
74880;PMS5003;63427;49.654;6.596;2022-10-30T08:07:05;16;15;
74880;PMS5003;63427;49.654;6.596;2022-10-30T08:09:30;14;14;
74880;PMS5003;63427;49.654;6.596;2022-10-30T08:11:55;16;16;
74880;PMS5003;63427;49.654;6.596;2022-10-30T08:14:20;16;16;
74880;PMS5003;63427;49.654;6.596;2022-10-30T08:16:46;16;15;
74880;PMS5003;63427;49.654;6.596;2022-10-30T08:19:11;14;14;
74880;PMS5003;63427;49.654;6.596;2022-10-30T08:21:37;16;16;
74880;PMS5003;63427;49.654;6.596;2022-10-30T08:24:02;16;16;
74880;PMS5003;63427;49.654;6.596;2022-10-30T08:26:27;15;15;
74880;PMS5003;63427;49.654;6.596;2022-10-30T08:28:52;19;17;
74880;PMS5003;63427;49.654;6.596;2022-10-30T08:31:18;21;21;
74880;PMS5003;63427;49.654;6.596;2022-10-30T08:33:43;20;20;
74880;PMS5003;63427;49.654;6.596;2022-10-30T08:36:09;20;19;
74880;PMS5003;63427;49.654;6.596;2022-10-30T08:38:35;22;19;
74880;PMS5003;63427;49.654;6.596;2022-10-30T08:41:00;16;16;
74880;PMS5003;63427;49.654;6.596;2022-10-30T08:43:25;19;18;
74880;PMS5003;63427;49.654;6.596;2022-10-30T08:45:51;15;14;
74880;PMS5003;63427;49.654;6.596;2022-10-30T08:48:16;17;17;
74880;PMS5003;63427;49.654;6.596;2022-10-30T08:50:41;15;15;
74880;PMS5003;63427;49.654;6.596;2022-10-30T08:53:07;16;16;
74880;PMS5003;63427;49.654;6.596;2022-10-30T08:55:32;17;17;
74880;PMS5003;63427;49.654;6.596;2022-10-30T08:57:57;20;19;
74880;PMS5003;63427;49.654;6.596;2022-10-30T09:00:22;23;23;
74880;PMS5003;63427;49.654;6.596;2022-10-30T09:02:47;18;18;
74880;PMS5003;63427;49.654;6.596;2022-10-30T09:05:13;21;20;
74880;PMS5003;63427;49.654;6.596;2022-10-30T09:07:38;24;24;
74880;PMS5003;63427;49.654;6.596;2022-10-30T09:10:04;18;18;
74880;PMS5003;63427;49.654;6.596;2022-10-30T09:12:29;18;17;
74880;PMS5003;63427;49.654;6.596;2022-10-30T09:14:55;15;15;
74880;PMS5003;63427;49.654;6.596;2022-10-30T09:17:20;15;14;
74880;PMS5003;63427;49.654;6.596;2022-10-30T09:19:45;16;16;
74880;PMS5003;63427;49.654;6.596;2022-10-30T09:22:11;15;15;
74880;PMS5003;63427;49.654;6.596;2022-10-30T09:24:37;16;16;
74880;PMS5003;63427;49.654;6.596;2022-10-30T09:27:03;16;15;
74880;PMS5003;63427;49.654;6.596;2022-10-30T09:29:27;19;19;
74880;PMS5003;63427;49.654;6.596;2022-10-30T09:31:52;17;17;
74880;PMS5003;63427;49.654;6.596;2022-10-30T09:34:17;15;15;
74880;PMS5003;63427;49.654;6.596;2022-10-30T09:36:43;18;18;
74880;PMS5003;63427;49.654;6.596;2022-10-30T09:39:09;17;17;
74880;PMS5003;63427;49.654;6.596;2022-10-30T09:41:38;15;15;
74880;PMS5003;63427;49.654;6.596;2022-10-30T09:44:03;18;17;
74880;PMS5003;63427;49.654;6.596;2022-10-30T09:46:28;17;16;
74880;PMS5003;63427;49.654;6.596;2022-10-30T09:48:58;19;19;
74880;PMS5003;63427;49.654;6.596;2022-10-30T09:51:20;21;20;
74880;PMS5003;63427;49.654;6.596;2022-10-30T09:53:43;17;17;
74880;PMS5003;63427;49.654;6.596;2022-10-30T09:56:07;17;17;
74880;PMS5003;63427;49.654;6.596;2022-10-30T09:58:33;18;18;
74880;PMS5003;63427;49.654;6.596;2022-10-30T10:01:01;16;16;
74880;PMS5003;63427;49.654;6.596;2022-10-30T10:03:27;16;16;
74880;PMS5003;63427;49.654;6.596;2022-10-30T10:05:49;20;18;
74880;PMS5003;63427;49.654;6.596;2022-10-30T10:08:14;18;18;
74880;PMS5003;63427;49.654;6.596;2022-10-30T10:10:40;19;19;
74880;PMS5003;63427;49.654;6.596;2022-10-30T10:13:05;22;22;
74880;PMS5003;63427;49.654;6.596;2022-10-30T10:15:32;16;16;
74880;PMS5003;63427;49.654;6.596;2022-10-30T10:17:55;19;18;
74880;PMS5003;63427;49.654;6.596;2022-10-30T10:20:24;18;18;
74880;PMS5003;63427;49.654;6.596;2022-10-30T10:22:47;18;18;
74880;PMS5003;63427;49.654;6.596;2022-10-30T10:25:12;19;19;
74880;PMS5003;63427;49.654;6.596;2022-10-30T10:27:41;23;23;
74880;PMS5003;63427;49.654;6.596;2022-10-30T10:30:04;17;17;
74880;PMS5003;63427;49.654;6.596;2022-10-30T10:32:36;20;20;
74880;PMS5003;63427;49.654;6.596;2022-10-30T10:35:08;18;18;
74880;PMS5003;63427;49.654;6.596;2022-10-30T10:37:21;20;19;
74880;PMS5003;63427;49.654;6.596;2022-10-30T10:39:49;18;18;
74880;PMS5003;63427;49.654;6.596;2022-10-30T10:42:13;20;19;
74880;PMS5003;63427;49.654;6.596;2022-10-30T10:44:38;18;18;
74880;PMS5003;63427;49.654;6.596;2022-10-30T10:47:06;17;16;
74880;PMS5003;63427;49.654;6.596;2022-10-30T10:49:29;18;16;
74880;PMS5003;63427;49.654;6.596;2022-10-30T10:51:52;16;16;
74880;PMS5003;63427;49.654;6.596;2022-10-30T10:54:17;15;15;
74880;PMS5003;63427;49.654;6.596;2022-10-30T10:56:43;14;14;
74880;PMS5003;63427;49.654;6.596;2022-10-30T10:59:11;16;16;
74880;PMS5003;63427;49.654;6.596;2022-10-30T11:01:34;16;16;
74880;PMS5003;63427;49.654;6.596;2022-10-30T11:03:59;16;16;
74880;PMS5003;63427;49.654;6.596;2022-10-30T11:06:24;18;18;
74880;PMS5003;63427;49.654;6.596;2022-10-30T11:08:48;16;15;
74880;PMS5003;63427;49.654;6.596;2022-10-30T11:11:13;16;16;
74880;PMS5003;63427;49.654;6.596;2022-10-30T11:13:39;17;17;
74880;PMS5003;63427;49.654;6.596;2022-10-30T11:16:08;15;14;
74880;PMS5003;63427;49.654;6.596;2022-10-30T11:18:29;19;18;
74880;PMS5003;63427;49.654;6.596;2022-10-30T11:20:55;18;18;
74880;PMS5003;63427;49.654;6.596;2022-10-30T11:25:44;14;14;
74880;PMS5003;63427;49.654;6.596;2022-10-30T11:28:10;16;16;
74880;PMS5003;63427;49.654;6.596;2022-10-30T11:30:36;17;16;
74880;PMS5003;63427;49.654;6.596;2022-10-30T11:33:19;16;16;
74880;PMS5003;63427;49.654;6.596;2022-10-30T11:35:27;15;15;
74880;PMS5003;63427;49.654;6.596;2022-10-30T11:40:20;15;15;
74880;PMS5003;63427;49.654;6.596;2022-10-30T11:42:45;15;14;
74880;PMS5003;63427;49.654;6.596;2022-10-30T11:45:12;17;17;
74880;PMS5003;63427;49.654;6.596;2022-10-30T11:47:36;18;18;
74880;PMS5003;63427;49.654;6.596;2022-10-30T11:50:02;16;16;
74880;PMS5003;63427;49.654;6.596;2022-10-30T11:52:27;15;15;
74880;PMS5003;63427;49.654;6.596;2022-10-30T11:54:53;13;13;
74880;PMS5003;63427;49.654;6.596;2022-10-30T11:57:22;14;14;
74880;PMS5003;63427;49.654;6.596;2022-10-30T11:59:44;12;12;
74880;PMS5003;63427;49.654;6.596;2022-10-30T12:04:34;14;13;
74880;PMS5003;63427;49.654;6.596;2022-10-30T12:07:07;11;11;
74880;PMS5003;63427;49.654;6.596;2022-10-30T12:09:25;11;11;
74880;PMS5003;63427;49.654;6.596;2022-10-30T12:11:51;11;10;
74880;PMS5003;63427;49.654;6.596;2022-10-30T12:14:17;11;11;
74880;PMS5003;63427;49.654;6.596;2022-10-30T12:16:43;14;13;
74880;PMS5003;63427;49.654;6.596;2022-10-30T12:19:07;11;11;
74880;PMS5003;63427;49.654;6.596;2022-10-30T12:21:34;9;9;
74880;PMS5003;63427;49.654;6.596;2022-10-30T12:23:59;10;10;
74880;PMS5003;63427;49.654;6.596;2022-10-30T12:26:24;8;8;
74880;PMS5003;63427;49.654;6.596;2022-10-30T12:28:51;9;9;
74880;PMS5003;63427;49.654;6.596;2022-10-30T12:31:16;8;8;
74880;PMS5003;63427;49.654;6.596;2022-10-30T12:33:41;12;12;
74880;PMS5003;63427;49.654;6.596;2022-10-30T12:36:09;11;9;
74880;PMS5003;63427;49.654;6.596;2022-10-30T12:38:33;8;8;
74880;PMS5003;63427;49.654;6.596;2022-10-30T12:41:00;10;10;
74880;PMS5003;63427;49.654;6.596;2022-10-30T12:43:24;10;9;
74880;PMS5003;63427;49.654;6.596;2022-10-30T12:45:49;11;11;
74880;PMS5003;63427;49.654;6.596;2022-10-30T12:48:16;8;8;
74880;PMS5003;63427;49.654;6.596;2022-10-30T12:50:41;9;9;
74880;PMS5003;63427;49.654;6.596;2022-10-30T12:53:07;7;7;
74880;PMS5003;63427;49.654;6.596;2022-10-30T12:55:33;10;10;
74880;PMS5003;63427;49.654;6.596;2022-10-30T12:58:00;14;13;
74880;PMS5003;63427;49.654;6.596;2022-10-30T13:00:23;8;8;
74880;PMS5003;63427;49.654;6.596;2022-10-30T13:02:51;10;10;
74880;PMS5003;63427;49.654;6.596;2022-10-30T13:05:18;9;9;
74880;PMS5003;63427;49.654;6.596;2022-10-30T13:07:42;7;7;
74880;PMS5003;63427;49.654;6.596;2022-10-30T13:12:33;8;8;
74880;PMS5003;63427;49.654;6.596;2022-10-30T13:14:58;8;7;
74880;PMS5003;63427;49.654;6.596;2022-10-30T13:17:23;11;10;
74880;PMS5003;63427;49.654;6.596;2022-10-30T13:19:48;7;7;
74880;PMS5003;63427;49.654;6.596;2022-10-30T13:22:15;7;7;
74880;PMS5003;63427;49.654;6.596;2022-10-30T13:24:43;10;8;
74880;PMS5003;63427;49.654;6.596;2022-10-30T13:27:06;10;10;
74880;PMS5003;63427;49.654;6.596;2022-10-30T13:29:32;6;6;
74880;PMS5003;63427;49.654;6.596;2022-10-30T13:32:00;8;7;
74880;PMS5003;63427;49.654;6.596;2022-10-30T13:34:25;8;7;
74880;PMS5003;63427;49.654;6.596;2022-10-30T13:36:49;10;10;
74880;PMS5003;63427;49.654;6.596;2022-10-30T13:39:16;13;11;
74880;PMS5003;63427;49.654;6.596;2022-10-30T13:41:41;9;8;
74880;PMS5003;63427;49.654;6.596;2022-10-30T13:44:05;10;9;
74880;PMS5003;63427;49.654;6.596;2022-10-30T13:46:32;7;6;
74880;PMS5003;63427;49.654;6.596;2022-10-30T13:48:58;6;6;
74880;PMS5003;63427;49.654;6.596;2022-10-30T13:51:25;7;7;
74880;PMS5003;63427;49.654;6.596;2022-10-30T13:53:47;9;9;
74880;PMS5003;63427;49.654;6.596;2022-10-30T13:56:13;9;9;
74880;PMS5003;63427;49.654;6.596;2022-10-30T13:58:38;8;8;
74880;PMS5003;63427;49.654;6.596;2022-10-30T14:01:04;7;7;
74880;PMS5003;63427;49.654;6.596;2022-10-30T14:03:32;8;7;
74880;PMS5003;63427;49.654;6.596;2022-10-30T14:06:00;5;5;
74880;PMS5003;63427;49.654;6.596;2022-10-30T14:08:23;5;5;
74880;PMS5003;63427;49.654;6.596;2022-10-30T14:10:46;8;7;
74880;PMS5003;63427;49.654;6.596;2022-10-30T14:13:14;8;7;
74880;PMS5003;63427;49.654;6.596;2022-10-30T14:15:40;6;6;
74880;PMS5003;63427;49.654;6.596;2022-10-30T14:20:29;7;7;
74880;PMS5003;63427;49.654;6.596;2022-10-30T14:25:20;6;6;
74880;PMS5003;63427;49.654;6.596;2022-10-30T14:27:54;7;7;
74880;PMS5003;63427;49.654;6.596;2022-10-30T14:30:17;5;5;
74880;PMS5003;63427;49.654;6.596;2022-10-30T14:32:38;6;6;
74880;PMS5003;63427;49.654;6.596;2022-10-30T14:39:55;6;6;
74880;PMS5003;63427;49.654;6.596;2022-10-30T14:42:22;5;4;
74880;PMS5003;63427;49.654;6.596;2022-10-30T14:44:49;5;5;
74880;PMS5003;63427;49.654;6.596;2022-10-30T14:49:43;5;5;
74880;PMS5003;63427;49.654;6.596;2022-10-30T14:52:07;7;6;
74880;PMS5003;63427;49.654;6.596;2022-10-30T14:54:30;6;6;
74880;PMS5003;63427;49.654;6.596;2022-10-30T14:56:54;5;5;
74880;PMS5003;63427;49.654;6.596;2022-10-30T14:59:21;6;5;
74880;PMS5003;63427;49.654;6.596;2022-10-30T15:01:48;6;6;
74880;PMS5003;63427;49.654;6.596;2022-10-30T15:04:14;5;5;
74880;PMS5003;63427;49.654;6.596;2022-10-30T15:06:40;7;6;
74880;PMS5003;63427;49.654;6.596;2022-10-30T15:09:07;7;7;
74880;PMS5003;63427;49.654;6.596;2022-10-30T15:11:34;7;7;
74880;PMS5003;63427;49.654;6.596;2022-10-30T15:13:55;6;6;
74880;PMS5003;63427;49.654;6.596;2022-10-30T15:16:20;6;6;
74880;PMS5003;63427;49.654;6.596;2022-10-30T15:18:46;7;7;
74880;PMS5003;63427;49.654;6.596;2022-10-30T15:21:13;6;6;
74880;PMS5003;63427;49.654;6.596;2022-10-30T15:23:38;6;6;
74880;PMS5003;63427;49.654;6.596;2022-10-30T15:26:04;6;6;
74880;PMS5003;63427;49.654;6.596;2022-10-30T15:28:30;7;7;
74880;PMS5003;63427;49.654;6.596;2022-10-30T15:30:57;8;7;
74880;PMS5003;63427;49.654;6.596;2022-10-30T15:33:21;7;7;
74880;PMS5003;63427;49.654;6.596;2022-10-30T15:35:46;6;6;
74880;PMS5003;63427;49.654;6.596;2022-10-30T15:38:12;9;9;
74880;PMS5003;63427;49.654;6.596;2022-10-30T15:40:38;8;8;
74880;PMS5003;63427;49.654;6.596;2022-10-30T15:43:04;8;8;
74880;PMS5003;63427;49.654;6.596;2022-10-30T15:45:31;9;9;
74880;PMS5003;63427;49.654;6.596;2022-10-30T15:47:56;9;7;
74880;PMS5003;63427;49.654;6.596;2022-10-30T15:50:21;8;7;
74880;PMS5003;63427;49.654;6.596;2022-10-30T15:52:47;7;7;
74880;PMS5003;63427;49.654;6.596;2022-10-30T15:55:13;7;7;
74880;PMS5003;63427;49.654;6.596;2022-10-30T15:57:40;10;9;
74880;PMS5003;63427;49.654;6.596;2022-10-30T16:00:05;5;5;
74880;PMS5003;63427;49.654;6.596;2022-10-30T16:02:30;7;7;
74880;PMS5003;63427;49.654;6.596;2022-10-30T16:04:55;7;7;
74880;PMS5003;63427;49.654;6.596;2022-10-30T16:07:21;7;6;
74880;PMS5003;63427;49.654;6.596;2022-10-30T16:09:51;5;5;
74880;PMS5003;63427;49.654;6.596;2022-10-30T16:12:11;7;6;
74880;PMS5003;63427;49.654;6.596;2022-10-30T16:14:36;6;6;
74880;PMS5003;63427;49.654;6.596;2022-10-30T16:17:01;6;6;
74880;PMS5003;63427;49.654;6.596;2022-10-30T16:19:26;6;6;
74880;PMS5003;63427;49.654;6.596;2022-10-30T16:21:51;6;5;
74880;PMS5003;63427;49.654;6.596;2022-10-30T16:24:16;7;6;
74880;PMS5003;63427;49.654;6.596;2022-10-30T16:26:41;7;6;
74880;PMS5003;63427;49.654;6.596;2022-10-30T16:29:15;6;6;
74880;PMS5003;63427;49.654;6.596;2022-10-30T16:31:32;9;9;
74880;PMS5003;63427;49.654;6.596;2022-10-30T16:33:56;18;17;